sensor_id;sensor_type;location;lat;lon;timestamp;P1;durP1;ratioP1;P2;durP2;ratioP2
23376;SDS011;14353;46.070;13.222;2022-08-21T00:00:17;0.80;;;0.80;;
23376;SDS011;14353;46.070;13.222;2022-08-21T00:02:47;0.70;;;0.70;;
23376;SDS011;14353;46.070;13.222;2022-08-21T00:05:19;1.08;;;0.90;;
23376;SDS011;14353;46.070;13.222;2022-08-21T00:07:46;1.05;;;0.80;;
23376;SDS011;14353;46.070;13.222;2022-08-21T00:10:12;0.80;;;0.77;;
23376;SDS011;14353;46.070;13.222;2022-08-21T00:12:40;1.10;;;1.00;;
23376;SDS011;14353;46.070;13.222;2022-08-21T00:15:10;0.70;;;0.70;;
23376;SDS011;14353;46.070;13.222;2022-08-21T00:17:40;0.88;;;0.77;;
23376;SDS011;14353;46.070;13.222;2022-08-21T00:20:07;0.95;;;0.70;;
23376;SDS011;14353;46.070;13.222;2022-08-21T00:22:37;0.70;;;0.70;;
23376;SDS011;14353;46.070;13.222;2022-08-21T00:25:04;1.25;;;0.60;;
23376;SDS011;14353;46.070;13.222;2022-08-21T00:27:34;0.70;;;0.70;;
23376;SDS011;14353;46.070;13.222;2022-08-21T00:30:04;1.05;;;0.70;;
23376;SDS011;14353;46.070;13.222;2022-08-21T00:32:31;0.98;;;0.80;;
23376;SDS011;14353;46.070;13.222;2022-08-21T00:35:01;0.68;;;0.68;;
23376;SDS011;14353;46.070;13.222;2022-08-21T00:37:27;0.80;;;0.80;;
23376;SDS011;14353;46.070;13.222;2022-08-21T00:39:52;1.70;;;0.80;;
23376;SDS011;14353;46.070;13.222;2022-08-21T00:42:21;1.02;;;0.65;;
23376;SDS011;14353;46.070;13.222;2022-08-21T00:44:48;0.70;;;0.70;;
23376;SDS011;14353;46.070;13.222;2022-08-21T00:47:18;2.15;;;0.68;;
23376;SDS011;14353;46.070;13.222;2022-08-21T00:49:44;1.67;;;0.75;;
23376;SDS011;14353;46.070;13.222;2022-08-21T00:52:11;0.80;;;0.80;;
23376;SDS011;14353;46.070;13.222;2022-08-21T00:54:42;0.70;;;0.70;;
23376;SDS011;14353;46.070;13.222;2022-08-21T00:57:10;1.10;;;0.80;;
23376;SDS011;14353;46.070;13.222;2022-08-21T00:59:41;1.20;;;0.75;;
23376;SDS011;14353;46.070;13.222;2022-08-21T01:02:15;0.68;;;0.60;;
23376;SDS011;14353;46.070;13.222;2022-08-21T01:04:42;0.82;;;0.80;;
23376;SDS011;14353;46.070;13.222;2022-08-21T01:07:08;1.02;;;0.65;;
23376;SDS011;14353;46.070;13.222;2022-08-21T01:09:35;1.02;;;0.82;;
23376;SDS011;14353;46.070;13.222;2022-08-21T01:12:02;1.98;;;0.90;;
23376;SDS011;14353;46.070;13.222;2022-08-21T01:14:28;0.60;;;0.60;;
23376;SDS011;14353;46.070;13.222;2022-08-21T01:16:55;0.77;;;0.60;;
23376;SDS011;14353;46.070;13.222;2022-08-21T01:19:23;0.65;;;0.57;;
23376;SDS011;14353;46.070;13.222;2022-08-21T01:21:50;0.60;;;0.60;;
23376;SDS011;14353;46.070;13.222;2022-08-21T01:24:16;2.17;;;0.70;;
23376;SDS011;14353;46.070;13.222;2022-08-21T01:26:42;2.65;;;0.50;;
23376;SDS011;14353;46.070;13.222;2022-08-21T01:29:11;0.63;;;0.63;;
23376;SDS011;14353;46.070;13.222;2022-08-21T01:32:03;1.20;;;0.73;;
23376;SDS011;14353;46.070;13.222;2022-08-21T01:34:38;0.73;;;0.73;;
23376;SDS011;14353;46.070;13.222;2022-08-21T01:37:06;0.70;;;0.70;;
23376;SDS011;14353;46.070;13.222;2022-08-21T01:39:32;1.05;;;0.70;;
23376;SDS011;14353;46.070;13.222;2022-08-21T01:41:58;0.65;;;0.65;;
23376;SDS011;14353;46.070;13.222;2022-08-21T01:44:27;0.90;;;0.60;;
23376;SDS011;14353;46.070;13.222;2022-08-21T01:46:53;1.20;;;0.68;;
23376;SDS011;14353;46.070;13.222;2022-08-21T01:49:20;0.70;;;0.70;;
23376;SDS011;14353;46.070;13.222;2022-08-21T01:51:46;0.75;;;0.55;;
23376;SDS011;14353;46.070;13.222;2022-08-21T01:54:12;0.50;;;0.50;;
23376;SDS011;14353;46.070;13.222;2022-08-21T01:56:38;1.40;;;0.73;;
23376;SDS011;14353;46.070;13.222;2022-08-21T01:59:07;1.33;;;0.60;;
23376;SDS011;14353;46.070;13.222;2022-08-21T02:01:33;0.77;;;0.70;;
23376;SDS011;14353;46.070;13.222;2022-08-21T02:03:59;0.95;;;0.80;;
23376;SDS011;14353;46.070;13.222;2022-08-21T02:06:25;0.75;;;0.60;;
23376;SDS011;14353;46.070;13.222;2022-08-21T02:08:52;0.65;;;0.60;;
23376;SDS011;14353;46.070;13.222;2022-08-21T02:11:21;1.65;;;0.60;;
23376;SDS011;14353;46.070;13.222;2022-08-21T02:13:47;0.57;;;0.57;;
23376;SDS011;14353;46.070;13.222;2022-08-21T02:16:13;1.40;;;0.70;;
23376;SDS011;14353;46.070;13.222;2022-08-21T02:18:42;0.63;;;0.50;;
23376;SDS011;14353;46.070;13.222;2022-08-21T02:21:08;0.60;;;0.60;;
23376;SDS011;14353;46.070;13.222;2022-08-21T02:23:37;0.82;;;0.63;;
23376;SDS011;14353;46.070;13.222;2022-08-21T02:26:04;0.60;;;0.60;;
23376;SDS011;14353;46.070;13.222;2022-08-21T02:28:32;0.55;;;0.50;;
23376;SDS011;14353;46.070;13.222;2022-08-21T02:31:01;1.50;;;0.50;;
23376;SDS011;14353;46.070;13.222;2022-08-21T02:33:28;0.50;;;0.50;;
23376;SDS011;14353;46.070;13.222;2022-08-21T02:35:54;1.02;;;0.70;;
23376;SDS011;14353;46.070;13.222;2022-08-21T02:38:31;0.75;;;0.52;;
23376;SDS011;14353;46.070;13.222;2022-08-21T02:40:59;0.47;;;0.47;;
23376;SDS011;14353;46.070;13.222;2022-08-21T02:43:28;0.60;;;0.60;;
23376;SDS011;14353;46.070;13.222;2022-08-21T02:45:55;1.60;;;0.63;;
23376;SDS011;14353;46.070;13.222;2022-08-21T02:48:26;0.98;;;0.50;;
23376;SDS011;14353;46.070;13.222;2022-08-21T02:50:57;0.65;;;0.50;;
23376;SDS011;14353;46.070;13.222;2022-08-21T02:53:28;0.57;;;0.50;;
23376;SDS011;14353;46.070;13.222;2022-08-21T02:55:56;0.73;;;0.50;;
23376;SDS011;14353;46.070;13.222;2022-08-21T02:58:24;0.70;;;0.60;;
23376;SDS011;14353;46.070;13.222;2022-08-21T03:00:52;0.50;;;0.50;;
23376;SDS011;14353;46.070;13.222;2022-08-21T03:03:23;0.60;;;0.60;;
23376;SDS011;14353;46.070;13.222;2022-08-21T03:05:50;0.70;;;0.60;;
23376;SDS011;14353;46.070;13.222;2022-08-21T03:08:17;0.95;;;0.47;;
23376;SDS011;14353;46.070;13.222;2022-08-21T03:10:45;0.82;;;0.50;;
23376;SDS011;14353;46.070;13.222;2022-08-21T03:13:13;0.88;;;0.60;;
23376;SDS011;14353;46.070;13.222;2022-08-21T03:15:40;0.57;;;0.57;;
23376;SDS011;14353;46.070;13.222;2022-08-21T03:18:08;0.50;;;0.50;;
23376;SDS011;14353;46.070;13.222;2022-08-21T03:20:35;0.57;;;0.57;;
23376;SDS011;14353;46.070;13.222;2022-08-21T03:23:02;0.68;;;0.60;;
23376;SDS011;14353;46.070;13.222;2022-08-21T03:25:29;0.85;;;0.57;;
23376;SDS011;14353;46.070;13.222;2022-08-21T03:27:59;0.77;;;0.52;;
23376;SDS011;14353;46.070;13.222;2022-08-21T03:30:26;0.50;;;0.50;;
23376;SDS011;14353;46.070;13.222;2022-08-21T03:32:52;0.70;;;0.50;;
23376;SDS011;14353;46.070;13.222;2022-08-21T03:35:19;0.50;;;0.50;;
23376;SDS011;14353;46.070;13.222;2022-08-21T03:37:45;0.57;;;0.55;;
23376;SDS011;14353;46.070;13.222;2022-08-21T03:40:13;0.68;;;0.68;;
23376;SDS011;14353;46.070;13.222;2022-08-21T03:42:41;0.50;;;0.50;;
23376;SDS011;14353;46.070;13.222;2022-08-21T03:45:07;0.50;;;0.50;;
23376;SDS011;14353;46.070;13.222;2022-08-21T03:47:38;0.73;;;0.50;;
23376;SDS011;14353;46.070;13.222;2022-08-21T03:50:28;0.77;;;0.50;;
23376;SDS011;14353;46.070;13.222;2022-08-21T03:53:01;1.30;;;0.50;;
23376;SDS011;14353;46.070;13.222;2022-08-21T03:55:27;1.35;;;0.60;;
23376;SDS011;14353;46.070;13.222;2022-08-21T03:57:53;0.60;;;0.60;;
23376;SDS011;14353;46.070;13.222;2022-08-21T04:00:22;0.40;;;0.40;;
23376;SDS011;14353;46.070;13.222;2022-08-21T04:02:48;0.70;;;0.55;;
23376;SDS011;14353;46.070;13.222;2022-08-21T04:05:18;0.47;;;0.47;;
23376;SDS011;14353;46.070;13.222;2022-08-21T04:07:57;0.45;;;0.45;;
23376;SDS011;14353;46.070;13.222;2022-08-21T04:10:24;0.60;;;0.50;;
23376;SDS011;14353;46.070;13.222;2022-08-21T04:12:52;0.40;;;0.40;;
23376;SDS011;14353;46.070;13.222;2022-08-21T04:15:18;0.50;;;0.50;;
23376;SDS011;14353;46.070;13.222;2022-08-21T04:17:45;0.40;;;0.40;;
23376;SDS011;14353;46.070;13.222;2022-08-21T04:20:10;0.50;;;0.40;;
23376;SDS011;14353;46.070;13.222;2022-08-21T04:22:40;0.50;;;0.50;;
23376;SDS011;14353;46.070;13.222;2022-08-21T04:25:06;0.82;;;0.50;;
23376;SDS011;14353;46.070;13.222;2022-08-21T04:27:33;0.40;;;0.40;;
23376;SDS011;14353;46.070;13.222;2022-08-21T04:30:08;1.17;;;0.45;;
23376;SDS011;14353;46.070;13.222;2022-08-21T04:32:38;0.68;;;0.45;;
23376;SDS011;14353;46.070;13.222;2022-08-21T04:35:09;0.75;;;0.40;;
23376;SDS011;14353;46.070;13.222;2022-08-21T04:37:36;1.77;;;0.50;;
23376;SDS011;14353;46.070;13.222;2022-08-21T04:40:02;0.43;;;0.43;;
23376;SDS011;14353;46.070;13.222;2022-08-21T04:42:29;0.70;;;0.40;;
23376;SDS011;14353;46.070;13.222;2022-08-21T04:44:55;0.65;;;0.50;;
23376;SDS011;14353;46.070;13.222;2022-08-21T04:47:22;0.45;;;0.40;;
23376;SDS011;14353;46.070;13.222;2022-08-21T04:49:49;0.60;;;0.50;;
23376;SDS011;14353;46.070;13.222;2022-08-21T04:52:17;0.40;;;0.40;;
23376;SDS011;14353;46.070;13.222;2022-08-21T04:54:49;0.50;;;0.50;;
23376;SDS011;14353;46.070;13.222;2022-08-21T04:57:16;0.43;;;0.43;;
23376;SDS011;14353;46.070;13.222;2022-08-21T04:59:45;0.60;;;0.50;;
23376;SDS011;14353;46.070;13.222;2022-08-21T05:02:16;0.50;;;0.50;;
23376;SDS011;14353;46.070;13.222;2022-08-21T05:04:51;0.80;;;0.50;;
23376;SDS011;14353;46.070;13.222;2022-08-21T05:07:20;0.50;;;0.40;;
23376;SDS011;14353;46.070;13.222;2022-08-21T05:09:52;0.50;;;0.50;;
23376;SDS011;14353;46.070;13.222;2022-08-21T05:12:22;1.23;;;0.40;;
23376;SDS011;14353;46.070;13.222;2022-08-21T05:14:48;0.50;;;0.50;;
23376;SDS011;14353;46.070;13.222;2022-08-21T05:17:17;0.52;;;0.40;;
23376;SDS011;14353;46.070;13.222;2022-08-21T05:19:43;0.30;;;0.30;;
23376;SDS011;14353;46.070;13.222;2022-08-21T05:22:09;0.43;;;0.43;;
23376;SDS011;14353;46.070;13.222;2022-08-21T05:24:35;0.57;;;0.55;;
23376;SDS011;14353;46.070;13.222;2022-08-21T05:27:01;0.68;;;0.32;;
23376;SDS011;14353;46.070;13.222;2022-08-21T05:29:27;0.40;;;0.40;;
23376;SDS011;14353;46.070;13.222;2022-08-21T05:31:56;0.40;;;0.40;;
23376;SDS011;14353;46.070;13.222;2022-08-21T05:34:22;0.50;;;0.43;;
23376;SDS011;14353;46.070;13.222;2022-08-21T05:36:48;0.40;;;0.40;;
23376;SDS011;14353;46.070;13.222;2022-08-21T05:39:14;1.17;;;0.50;;
23376;SDS011;14353;46.070;13.222;2022-08-21T05:41:40;0.65;;;0.50;;
23376;SDS011;14353;46.070;13.222;2022-08-21T05:44:06;1.27;;;0.50;;
23376;SDS011;14353;46.070;13.222;2022-08-21T05:46:32;0.40;;;0.40;;
23376;SDS011;14353;46.070;13.222;2022-08-21T05:48:58;0.47;;;0.43;;
23376;SDS011;14353;46.070;13.222;2022-08-21T05:51:24;1.95;;;0.60;;
23376;SDS011;14353;46.070;13.222;2022-08-21T05:53:51;0.40;;;0.40;;
23376;SDS011;14353;46.070;13.222;2022-08-21T05:56:23;0.47;;;0.47;;
23376;SDS011;14353;46.070;13.222;2022-08-21T05:58:48;0.40;;;0.40;;
23376;SDS011;14353;46.070;13.222;2022-08-21T06:01:14;0.47;;;0.47;;
23376;SDS011;14353;46.070;13.222;2022-08-21T06:03:40;0.30;;;0.30;;
23376;SDS011;14353;46.070;13.222;2022-08-21T06:06:07;0.30;;;0.30;;
23376;SDS011;14353;46.070;13.222;2022-08-21T06:08:36;0.57;;;0.50;;
23376;SDS011;14353;46.070;13.222;2022-08-21T06:11:03;0.40;;;0.40;;
23376;SDS011;14353;46.070;13.222;2022-08-21T06:13:33;0.68;;;0.52;;
23376;SDS011;14353;46.070;13.222;2022-08-21T06:18:30;0.50;;;0.50;;
23376;SDS011;14353;46.070;13.222;2022-08-21T06:20:55;0.43;;;0.40;;
23376;SDS011;14353;46.070;13.222;2022-08-21T06:23:27;0.50;;;0.45;;
23376;SDS011;14353;46.070;13.222;2022-08-21T06:25:56;0.38;;;0.30;;
23376;SDS011;14353;46.070;13.222;2022-08-21T06:28:22;0.30;;;0.30;;
23376;SDS011;14353;46.070;13.222;2022-08-21T06:30:48;0.55;;;0.55;;
23376;SDS011;14353;46.070;13.222;2022-08-21T06:33:20;0.47;;;0.40;;
23376;SDS011;14353;46.070;13.222;2022-08-21T06:35:46;0.50;;;0.50;;
23376;SDS011;14353;46.070;13.222;2022-08-21T06:38:11;0.68;;;0.40;;
23376;SDS011;14353;46.070;13.222;2022-08-21T06:40:40;0.40;;;0.40;;
23376;SDS011;14353;46.070;13.222;2022-08-21T06:43:15;2.05;;;0.65;;
23376;SDS011;14353;46.070;13.222;2022-08-21T06:45:42;0.50;;;0.50;;
23376;SDS011;14353;46.070;13.222;2022-08-21T06:48:11;0.45;;;0.40;;
23376;SDS011;14353;46.070;13.222;2022-08-21T06:50:37;0.40;;;0.40;;
23376;SDS011;14353;46.070;13.222;2022-08-21T06:53:10;0.50;;;0.50;;
23376;SDS011;14353;46.070;13.222;2022-08-21T06:55:37;0.38;;;0.38;;
23376;SDS011;14353;46.070;13.222;2022-08-21T06:58:04;1.17;;;0.47;;
23376;SDS011;14353;46.070;13.222;2022-08-21T07:00:31;1.25;;;0.40;;
23376;SDS011;14353;46.070;13.222;2022-08-21T07:02:57;0.57;;;0.40;;
23376;SDS011;14353;46.070;13.222;2022-08-21T07:05:27;0.43;;;0.43;;
23376;SDS011;14353;46.070;13.222;2022-08-21T07:07:54;0.30;;;0.30;;
23376;SDS011;14353;46.070;13.222;2022-08-21T07:10:22;0.98;;;0.35;;
23376;SDS011;14353;46.070;13.222;2022-08-21T07:12:51;0.30;;;0.30;;
23376;SDS011;14353;46.070;13.222;2022-08-21T07:15:19;0.77;;;0.47;;
23376;SDS011;14353;46.070;13.222;2022-08-21T07:17:46;0.77;;;0.43;;
23376;SDS011;14353;46.070;13.222;2022-08-21T07:20:12;0.43;;;0.43;;
23376;SDS011;14353;46.070;13.222;2022-08-21T07:22:38;1.08;;;0.40;;
23376;SDS011;14353;46.070;13.222;2022-08-21T07:25:05;0.80;;;0.45;;
23376;SDS011;14353;46.070;13.222;2022-08-21T07:27:31;0.57;;;0.30;;
23376;SDS011;14353;46.070;13.222;2022-08-21T07:29:57;0.65;;;0.43;;
23376;SDS011;14353;46.070;13.222;2022-08-21T07:32:23;0.40;;;0.40;;
23376;SDS011;14353;46.070;13.222;2022-08-21T07:34:50;0.30;;;0.30;;
23376;SDS011;14353;46.070;13.222;2022-08-21T07:37:19;0.80;;;0.40;;
23376;SDS011;14353;46.070;13.222;2022-08-21T07:39:45;0.50;;;0.50;;
23376;SDS011;14353;46.070;13.222;2022-08-21T07:42:14;0.55;;;0.50;;
23376;SDS011;14353;46.070;13.222;2022-08-21T07:44:40;0.40;;;0.40;;
23376;SDS011;14353;46.070;13.222;2022-08-21T07:47:06;0.40;;;0.40;;
23376;SDS011;14353;46.070;13.222;2022-08-21T07:49:32;0.93;;;0.50;;
23376;SDS011;14353;46.070;13.222;2022-08-21T07:51:58;0.50;;;0.50;;
23376;SDS011;14353;46.070;13.222;2022-08-21T07:54:25;0.40;;;0.30;;
23376;SDS011;14353;46.070;13.222;2022-08-21T07:56:51;0.40;;;0.40;;
23376;SDS011;14353;46.070;13.222;2022-08-21T07:59:17;0.40;;;0.40;;
23376;SDS011;14353;46.070;13.222;2022-08-21T08:01:42;2.00;;;0.50;;
23376;SDS011;14353;46.070;13.222;2022-08-21T08:04:11;0.52;;;0.40;;
23376;SDS011;14353;46.070;13.222;2022-08-21T08:06:37;0.40;;;0.40;;
23376;SDS011;14353;46.070;13.222;2022-08-21T08:09:06;0.32;;;0.32;;
23376;SDS011;14353;46.070;13.222;2022-08-21T08:11:32;0.30;;;0.30;;
23376;SDS011;14353;46.070;13.222;2022-08-21T08:13:58;0.20;;;0.20;;
23376;SDS011;14353;46.070;13.222;2022-08-21T08:16:25;0.77;;;0.47;;
23376;SDS011;14353;46.070;13.222;2022-08-21T08:18:51;0.57;;;0.50;;
23376;SDS011;14353;46.070;13.222;2022-08-21T08:21:17;0.40;;;0.40;;
23376;SDS011;14353;46.070;13.222;2022-08-21T08:23:46;0.47;;;0.47;;
23376;SDS011;14353;46.070;13.222;2022-08-21T08:26:12;0.40;;;0.40;;
23376;SDS011;14353;46.070;13.222;2022-08-21T08:28:41;0.40;;;0.40;;
23376;SDS011;14353;46.070;13.222;2022-08-21T08:31:07;0.47;;;0.47;;
23376;SDS011;14353;46.070;13.222;2022-08-21T08:33:33;0.45;;;0.40;;
23376;SDS011;14353;46.070;13.222;2022-08-21T08:35:59;0.38;;;0.38;;
23376;SDS011;14353;46.070;13.222;2022-08-21T08:38:28;0.40;;;0.40;;
23376;SDS011;14353;46.070;13.222;2022-08-21T08:43:35;0.52;;;0.40;;
23376;SDS011;14353;46.070;13.222;2022-08-21T08:46:02;0.70;;;0.40;;
23376;SDS011;14353;46.070;13.222;2022-08-21T08:48:39;0.50;;;0.50;;
23376;SDS011;14353;46.070;13.222;2022-08-21T08:51:32;0.40;;;0.40;;
23376;SDS011;14353;46.070;13.222;2022-08-21T08:54:15;0.35;;;0.35;;
23376;SDS011;14353;46.070;13.222;2022-08-21T08:56:46;0.70;;;0.40;;
23376;SDS011;14353;46.070;13.222;2022-08-21T08:59:15;1.48;;;0.30;;
23376;SDS011;14353;46.070;13.222;2022-08-21T09:01:44;0.30;;;0.30;;
23376;SDS011;14353;46.070;13.222;2022-08-21T09:04:11;0.50;;;0.40;;
23376;SDS011;14353;46.070;13.222;2022-08-21T09:12:02;0.93;;;0.40;;
23376;SDS011;14353;46.070;13.222;2022-08-21T09:14:47;0.77;;;0.30;;
23376;SDS011;14353;46.070;13.222;2022-08-21T09:28:39;0.40;;;0.40;;
23376;SDS011;14353;46.070;13.222;2022-08-21T09:31:11;0.40;;;0.40;;
23376;SDS011;14353;46.070;13.222;2022-08-21T09:34:05;0.40;;;0.40;;
23376;SDS011;14353;46.070;13.222;2022-08-21T09:36:36;0.55;;;0.50;;
23376;SDS011;14353;46.070;13.222;2022-08-21T09:39:21;0.28;;;0.28;;
23376;SDS011;14353;46.070;13.222;2022-08-21T09:42:05;0.70;;;0.35;;
23376;SDS011;14353;46.070;13.222;2022-08-21T09:44:33;0.30;;;0.30;;
23376;SDS011;14353;46.070;13.222;2022-08-21T09:49:33;0.55;;;0.40;;
23376;SDS011;14353;46.070;13.222;2022-08-21T09:52:01;0.40;;;0.40;;
23376;SDS011;14353;46.070;13.222;2022-08-21T09:54:38;0.60;;;0.40;;
23376;SDS011;14353;46.070;13.222;2022-08-21T10:00:10;0.50;;;0.50;;
23376;SDS011;14353;46.070;13.222;2022-08-21T10:02:51;0.30;;;0.30;;
23376;SDS011;14353;46.070;13.222;2022-08-21T10:07:51;0.95;;;0.50;;
23376;SDS011;14353;46.070;13.222;2022-08-21T10:10:25;0.30;;;0.30;;
23376;SDS011;14353;46.070;13.222;2022-08-21T10:13:11;0.50;;;0.50;;
23376;SDS011;14353;46.070;13.222;2022-08-21T10:15:56;0.47;;;0.47;;
23376;SDS011;14353;46.070;13.222;2022-08-21T10:18:38;0.32;;;0.32;;
23376;SDS011;14353;46.070;13.222;2022-08-21T10:21:14;0.40;;;0.40;;
23376;SDS011;14353;46.070;13.222;2022-08-21T10:23:48;0.40;;;0.40;;
23376;SDS011;14353;46.070;13.222;2022-08-21T10:35:19;0.40;;;0.30;;
23376;SDS011;14353;46.070;13.222;2022-08-21T10:41:02;0.40;;;0.40;;
23376;SDS011;14353;46.070;13.222;2022-08-21T10:48:57;1.25;;;0.45;;
23376;SDS011;14353;46.070;13.222;2022-08-21T10:51:38;0.93;;;0.50;;
23376;SDS011;14353;46.070;13.222;2022-08-21T10:54:12;0.30;;;0.30;;
23376;SDS011;14353;46.070;13.222;2022-08-21T10:59:28;2.10;;;0.50;;
23376;SDS011;14353;46.070;13.222;2022-08-21T11:02:00;0.43;;;0.43;;
23376;SDS011;14353;46.070;13.222;2022-08-21T11:04:36;0.40;;;0.38;;
23376;SDS011;14353;46.070;13.222;2022-08-21T11:07:34;0.93;;;0.50;;
23376;SDS011;14353;46.070;13.222;2022-08-21T11:10:18;0.65;;;0.35;;
23376;SDS011;14353;46.070;13.222;2022-08-21T11:12:54;0.47;;;0.32;;
23376;SDS011;14353;46.070;13.222;2022-08-21T11:15:45;0.40;;;0.30;;
23376;SDS011;14353;46.070;13.222;2022-08-21T11:18:41;0.60;;;0.50;;
23376;SDS011;14353;46.070;13.222;2022-08-21T11:29:53;0.50;;;0.43;;
23376;SDS011;14353;46.070;13.222;2022-08-21T11:32:31;1.75;;;0.50;;
23376;SDS011;14353;46.070;13.222;2022-08-21T11:35:30;0.47;;;0.40;;
23376;SDS011;14353;46.070;13.222;2022-08-21T11:52:08;0.85;;;0.40;;
23376;SDS011;14353;46.070;13.222;2022-08-21T11:55:05;1.45;;;0.60;;
23376;SDS011;14353;46.070;13.222;2022-08-21T11:57:43;0.90;;;0.68;;
23376;SDS011;14353;46.070;13.222;2022-08-21T12:00:27;1.10;;;0.50;;
23376;SDS011;14353;46.070;13.222;2022-08-21T12:03:09;2.25;;;0.60;;
23376;SDS011;14353;46.070;13.222;2022-08-21T12:05:44;1.35;;;0.60;;
23376;SDS011;14353;46.070;13.222;2022-08-21T12:08:40;0.57;;;0.57;;
23376;SDS011;14353;46.070;13.222;2022-08-21T12:11:08;1.20;;;0.50;;
23376;SDS011;14353;46.070;13.222;2022-08-21T12:14:10;0.50;;;0.50;;
23376;SDS011;14353;46.070;13.222;2022-08-21T12:16:39;0.40;;;0.40;;
23376;SDS011;14353;46.070;13.222;2022-08-21T12:19:27;1.02;;;0.50;;
23376;SDS011;14353;46.070;13.222;2022-08-21T12:21:59;0.60;;;0.40;;
23376;SDS011;14353;46.070;13.222;2022-08-21T12:27:30;1.00;;;0.47;;
23376;SDS011;14353;46.070;13.222;2022-08-21T12:33:01;0.50;;;0.40;;
23376;SDS011;14353;46.070;13.222;2022-08-21T12:35:36;0.75;;;0.50;;
23376;SDS011;14353;46.070;13.222;2022-08-21T12:44:13;1.52;;;0.60;;
23376;SDS011;14353;46.070;13.222;2022-08-21T12:46:30;0.60;;;0.40;;
23376;SDS011;14353;46.070;13.222;2022-08-21T12:49:28;1.20;;;0.70;;
23376;SDS011;14353;46.070;13.222;2022-08-21T12:52:11;0.80;;;0.60;;
23376;SDS011;14353;46.070;13.222;2022-08-21T12:54:45;0.60;;;0.57;;
23376;SDS011;14353;46.070;13.222;2022-08-21T12:57:18;1.02;;;0.60;;
23376;SDS011;14353;46.070;13.222;2022-08-21T12:59:58;1.05;;;0.60;;
23376;SDS011;14353;46.070;13.222;2022-08-21T13:02:32;1.23;;;0.60;;
23376;SDS011;14353;46.070;13.222;2022-08-21T13:05:07;1.10;;;0.60;;
23376;SDS011;14353;46.070;13.222;2022-08-21T13:07:42;1.85;;;0.70;;
23376;SDS011;14353;46.070;13.222;2022-08-21T13:15:37;0.50;;;0.50;;
23376;SDS011;14353;46.070;13.222;2022-08-21T13:18:07;1.55;;;0.50;;
23376;SDS011;14353;46.070;13.222;2022-08-21T13:20:34;0.50;;;0.50;;
23376;SDS011;14353;46.070;13.222;2022-08-21T13:23:05;0.50;;;0.50;;
23376;SDS011;14353;46.070;13.222;2022-08-21T13:25:40;0.60;;;0.47;;
23376;SDS011;14353;46.070;13.222;2022-08-21T13:28:08;1.63;;;0.73;;
23376;SDS011;14353;46.070;13.222;2022-08-21T13:30:40;0.90;;;0.60;;
23376;SDS011;14353;46.070;13.222;2022-08-21T13:33:11;1.00;;;0.57;;
23376;SDS011;14353;46.070;13.222;2022-08-21T13:38:30;0.80;;;0.50;;
23376;SDS011;14353;46.070;13.222;2022-08-21T13:43:49;1.05;;;0.70;;
23376;SDS011;14353;46.070;13.222;2022-08-21T13:46:24;1.10;;;0.60;;
23376;SDS011;14353;46.070;13.222;2022-08-21T13:48:53;1.10;;;0.50;;
23376;SDS011;14353;46.070;13.222;2022-08-21T13:51:20;1.50;;;0.77;;
23376;SDS011;14353;46.070;13.222;2022-08-21T13:53:48;0.60;;;0.40;;
23376;SDS011;14353;46.070;13.222;2022-08-21T13:56:23;0.50;;;0.50;;
23376;SDS011;14353;46.070;13.222;2022-08-21T13:58:50;1.80;;;0.70;;
23376;SDS011;14353;46.070;13.222;2022-08-21T14:03:50;1.40;;;0.60;;
23376;SDS011;14353;46.070;13.222;2022-08-21T14:06:20;1.08;;;0.55;;
23376;SDS011;14353;46.070;13.222;2022-08-21T14:08:55;0.95;;;0.52;;
23376;SDS011;14353;46.070;13.222;2022-08-21T14:11:27;0.80;;;0.60;;
23376;SDS011;14353;46.070;13.222;2022-08-21T14:13:59;1.00;;;0.60;;
23376;SDS011;14353;46.070;13.222;2022-08-21T14:16:29;0.90;;;0.70;;
23376;SDS011;14353;46.070;13.222;2022-08-21T14:19:18;0.68;;;0.63;;
23376;SDS011;14353;46.070;13.222;2022-08-21T14:21:49;0.60;;;0.50;;
23376;SDS011;14353;46.070;13.222;2022-08-21T14:27:01;0.90;;;0.60;;
23376;SDS011;14353;46.070;13.222;2022-08-21T14:29:32;0.65;;;0.57;;
23376;SDS011;14353;46.070;13.222;2022-08-21T14:32:12;0.85;;;0.60;;
23376;SDS011;14353;46.070;13.222;2022-08-21T14:34:47;0.85;;;0.50;;
23376;SDS011;14353;46.070;13.222;2022-08-21T14:37:12;1.50;;;0.60;;
23376;SDS011;14353;46.070;13.222;2022-08-21T14:39:38;1.73;;;0.70;;
23376;SDS011;14353;46.070;13.222;2022-08-21T14:42:10;2.83;;;0.70;;
23376;SDS011;14353;46.070;13.222;2022-08-21T14:44:37;1.10;;;0.70;;
23376;SDS011;14353;46.070;13.222;2022-08-21T14:47:07;2.13;;;0.45;;
23376;SDS011;14353;46.070;13.222;2022-08-21T14:49:34;0.70;;;0.50;;
23376;SDS011;14353;46.070;13.222;2022-08-21T14:52:00;0.88;;;0.60;;
23376;SDS011;14353;46.070;13.222;2022-08-21T14:54:30;2.05;;;0.68;;
23376;SDS011;14353;46.070;13.222;2022-08-21T14:56:57;0.65;;;0.57;;
23376;SDS011;14353;46.070;13.222;2022-08-21T14:59:29;1.48;;;0.70;;
23376;SDS011;14353;46.070;13.222;2022-08-21T15:01:57;0.75;;;0.70;;
23376;SDS011;14353;46.070;13.222;2022-08-21T15:04:23;0.98;;;0.65;;
23376;SDS011;14353;46.070;13.222;2022-08-21T15:06:49;0.70;;;0.70;;
23376;SDS011;14353;46.070;13.222;2022-08-21T15:09:15;1.52;;;0.70;;
23376;SDS011;14353;46.070;13.222;2022-08-21T15:11:44;1.02;;;0.70;;
23376;SDS011;14353;46.070;13.222;2022-08-21T15:14:11;1.88;;;0.80;;
23376;SDS011;14353;46.070;13.222;2022-08-21T15:16:50;1.20;;;0.70;;
23376;SDS011;14353;46.070;13.222;2022-08-21T15:19:18;2.58;;;0.90;;
23376;SDS011;14353;46.070;13.222;2022-08-21T15:21:47;1.20;;;0.70;;
23376;SDS011;14353;46.070;13.222;2022-08-21T15:24:14;1.23;;;0.70;;
23376;SDS011;14353;46.070;13.222;2022-08-21T15:26:40;1.10;;;0.77;;
23376;SDS011;14353;46.070;13.222;2022-08-21T15:29:06;1.33;;;0.70;;
23376;SDS011;14353;46.070;13.222;2022-08-21T15:31:33;1.17;;;0.90;;
23376;SDS011;14353;46.070;13.222;2022-08-21T15:34:00;1.50;;;1.00;;
23376;SDS011;14353;46.070;13.222;2022-08-21T15:36:26;3.25;;;0.93;;
23376;SDS011;14353;46.070;13.222;2022-08-21T15:38:51;1.02;;;0.80;;
23376;SDS011;14353;46.070;13.222;2022-08-21T15:41:17;1.75;;;0.82;;
23376;SDS011;14353;46.070;13.222;2022-08-21T15:43:50;0.65;;;0.60;;
23376;SDS011;14353;46.070;13.222;2022-08-21T15:46:18;1.13;;;0.70;;
23376;SDS011;14353;46.070;13.222;2022-08-21T15:48:44;1.23;;;0.85;;
23376;SDS011;14353;46.070;13.222;2022-08-21T15:51:11;2.20;;;0.82;;
23376;SDS011;14353;46.070;13.222;2022-08-21T15:53:37;2.33;;;0.80;;
23376;SDS011;14353;46.070;13.222;2022-08-21T15:56:06;0.93;;;0.65;;
23376;SDS011;14353;46.070;13.222;2022-08-21T15:58:38;1.30;;;0.73;;
23376;SDS011;14353;46.070;13.222;2022-08-21T16:01:04;1.75;;;0.98;;
23376;SDS011;14353;46.070;13.222;2022-08-21T16:03:33;1.42;;;0.70;;
23376;SDS011;14353;46.070;13.222;2022-08-21T16:05:59;1.13;;;0.73;;
23376;SDS011;14353;46.070;13.222;2022-08-21T16:08:27;1.83;;;0.70;;
23376;SDS011;14353;46.070;13.222;2022-08-21T16:10:53;6.55;;;0.90;;
23376;SDS011;14353;46.070;13.222;2022-08-21T16:13:23;4.80;;;1.00;;
23376;SDS011;14353;46.070;13.222;2022-08-21T16:15:56;2.67;;;0.90;;
23376;SDS011;14353;46.070;13.222;2022-08-21T16:18:22;2.55;;;0.80;;
23376;SDS011;14353;46.070;13.222;2022-08-21T16:20:50;1.42;;;0.80;;
23376;SDS011;14353;46.070;13.222;2022-08-21T16:23:16;1.92;;;0.80;;
23376;SDS011;14353;46.070;13.222;2022-08-21T16:25:43;1.67;;;0.77;;
23376;SDS011;14353;46.070;13.222;2022-08-21T16:28:10;1.98;;;0.80;;
23376;SDS011;14353;46.070;13.222;2022-08-21T16:30:39;0.65;;;0.60;;